sensor_id;sensor_type;location;lat;lon;timestamp;P1;durP1;ratioP1;P2;durP2;ratioP2
5823;SDS011;2938;52.254;12.988;2023-01-24T00:01:31;21.70;;;15.10;;
5823;SDS011;2938;52.254;12.988;2023-01-24T00:03:56;22.85;;;14.63;;
5823;SDS011;2938;52.254;12.988;2023-01-24T00:06:22;22.48;;;13.45;;
5823;SDS011;2938;52.254;12.988;2023-01-24T00:08:47;23.00;;;14.40;;
5823;SDS011;2938;52.254;12.988;2023-01-24T00:11:12;25.65;;;14.77;;
5823;SDS011;2938;52.254;12.988;2023-01-24T00:13:38;23.42;;;14.07;;
5823;SDS011;2938;52.254;12.988;2023-01-24T00:16:05;24.67;;;14.38;;
5823;SDS011;2938;52.254;12.988;2023-01-24T00:18:35;18.95;;;13.82;;
5823;SDS011;2938;52.254;12.988;2023-01-24T00:21:01;23.17;;;15.65;;
5823;SDS011;2938;52.254;12.988;2023-01-24T00:23:47;21.75;;;13.23;;
5823;SDS011;2938;52.254;12.988;2023-01-24T00:26:14;26.65;;;15.15;;
5823;SDS011;2938;52.254;12.988;2023-01-24T00:28:40;22.20;;;14.32;;
5823;SDS011;2938;52.254;12.988;2023-01-24T00:31:06;23.08;;;13.52;;
5823;SDS011;2938;52.254;12.988;2023-01-24T00:33:31;22.48;;;13.38;;
5823;SDS011;2938;52.254;12.988;2023-01-24T00:35:57;22.92;;;14.25;;
5823;SDS011;2938;52.254;12.988;2023-01-24T00:38:23;23.73;;;16.08;;
5823;SDS011;2938;52.254;12.988;2023-01-24T00:40:48;27.35;;;15.05;;
5823;SDS011;2938;52.254;12.988;2023-01-24T00:43:14;24.38;;;15.18;;
5823;SDS011;2938;52.254;12.988;2023-01-24T00:45:39;26.13;;;14.48;;
5823;SDS011;2938;52.254;12.988;2023-01-24T00:48:05;19.08;;;12.55;;
5823;SDS011;2938;52.254;12.988;2023-01-24T00:50:32;26.23;;;13.80;;
5823;SDS011;2938;52.254;12.988;2023-01-24T00:52:57;26.90;;;16.20;;
5823;SDS011;2938;52.254;12.988;2023-01-24T00:55:22;25.60;;;14.93;;
5823;SDS011;2938;52.254;12.988;2023-01-24T00:57:48;29.33;;;14.45;;
5823;SDS011;2938;52.254;12.988;2023-01-24T01:00:13;28.15;;;16.05;;
5823;SDS011;2938;52.254;12.988;2023-01-24T01:02:39;29.40;;;15.27;;
5823;SDS011;2938;52.254;12.988;2023-01-24T01:05:04;30.60;;;16.40;;
5823;SDS011;2938;52.254;12.988;2023-01-24T01:07:32;26.00;;;16.67;;
5823;SDS011;2938;52.254;12.988;2023-01-24T01:09:58;27.05;;;16.27;;
5823;SDS011;2938;52.254;12.988;2023-01-24T01:12:23;27.98;;;16.35;;
5823;SDS011;2938;52.254;12.988;2023-01-24T01:14:49;25.65;;;16.65;;
5823;SDS011;2938;52.254;12.988;2023-01-24T01:17:14;27.23;;;15.77;;
5823;SDS011;2938;52.254;12.988;2023-01-24T01:19:40;26.60;;;16.90;;
5823;SDS011;2938;52.254;12.988;2023-01-24T01:22:05;30.67;;;15.75;;
5823;SDS011;2938;52.254;12.988;2023-01-24T01:24:31;27.88;;;17.15;;
5823;SDS011;2938;52.254;12.988;2023-01-24T01:26:56;26.83;;;16.17;;
5823;SDS011;2938;52.254;12.988;2023-01-24T01:29:21;30.65;;;16.55;;
5823;SDS011;2938;52.254;12.988;2023-01-24T01:31:47;25.23;;;16.48;;
5823;SDS011;2938;52.254;12.988;2023-01-24T01:34:12;29.88;;;17.13;;
5823;SDS011;2938;52.254;12.988;2023-01-24T01:36:37;22.55;;;13.82;;
5823;SDS011;2938;52.254;12.988;2023-01-24T01:39:03;22.08;;;15.75;;
5823;SDS011;2938;52.254;12.988;2023-01-24T01:41:28;29.33;;;16.77;;
5823;SDS011;2938;52.254;12.988;2023-01-24T01:43:54;29.50;;;16.92;;
5823;SDS011;2938;52.254;12.988;2023-01-24T01:46:42;29.88;;;16.40;;
5823;SDS011;2938;52.254;12.988;2023-01-24T01:49:12;33.15;;;19.02;;
5823;SDS011;2938;52.254;12.988;2023-01-24T01:51:47;27.98;;;17.27;;
5823;SDS011;2938;52.254;12.988;2023-01-24T01:54:17;31.10;;;18.13;;
5823;SDS011;2938;52.254;12.988;2023-01-24T01:56:46;30.13;;;17.23;;
5823;SDS011;2938;52.254;12.988;2023-01-24T01:59:14;33.38;;;18.17;;
5823;SDS011;2938;52.254;12.988;2023-01-24T02:01:42;27.55;;;16.73;;
5823;SDS011;2938;52.254;12.988;2023-01-24T02:04:09;26.85;;;15.60;;
5823;SDS011;2938;52.254;12.988;2023-01-24T02:06:42;26.85;;;15.73;;
5823;SDS011;2938;52.254;12.988;2023-01-24T02:09:14;31.38;;;18.58;;
5823;SDS011;2938;52.254;12.988;2023-01-24T02:11:45;26.42;;;17.33;;
5823;SDS011;2938;52.254;12.988;2023-01-24T02:14:11;32.08;;;18.08;;
5823;SDS011;2938;52.254;12.988;2023-01-24T02:16:56;33.20;;;18.92;;
5823;SDS011;2938;52.254;12.988;2023-01-24T02:19:40;28.65;;;17.42;;
5823;SDS011;2938;52.254;12.988;2023-01-24T02:22:21;29.42;;;18.05;;
5823;SDS011;2938;52.254;12.988;2023-01-24T02:25:01;28.95;;;16.23;;
5823;SDS011;2938;52.254;12.988;2023-01-24T02:27:49;30.60;;;16.55;;
5823;SDS011;2938;52.254;12.988;2023-01-24T02:30:14;28.25;;;16.77;;
5823;SDS011;2938;52.254;12.988;2023-01-24T02:32:40;27.60;;;16.17;;
5823;SDS011;2938;52.254;12.988;2023-01-24T02:35:05;24.95;;;16.63;;
5823;SDS011;2938;52.254;12.988;2023-01-24T02:37:32;36.78;;;16.80;;
5823;SDS011;2938;52.254;12.988;2023-01-24T02:40:02;32.28;;;18.23;;
5823;SDS011;2938;52.254;12.988;2023-01-24T02:42:30;32.33;;;18.02;;
5823;SDS011;2938;52.254;12.988;2023-01-24T02:47:36;32.20;;;18.17;;
5823;SDS011;2938;52.254;12.988;2023-01-24T02:50:05;42.20;;;22.05;;
5823;SDS011;2938;52.254;12.988;2023-01-24T02:52:33;36.78;;;19.45;;
5823;SDS011;2938;52.254;12.988;2023-01-24T02:55:17;33.88;;;19.50;;
5823;SDS011;2938;52.254;12.988;2023-01-24T02:57:42;32.63;;;19.10;;
5823;SDS011;2938;52.254;12.988;2023-01-24T03:00:26;36.00;;;20.92;;
5823;SDS011;2938;52.254;12.988;2023-01-24T03:02:51;36.50;;;21.02;;
5823;SDS011;2938;52.254;12.988;2023-01-24T03:05:17;44.78;;;21.55;;
5823;SDS011;2938;52.254;12.988;2023-01-24T03:07:42;44.53;;;22.50;;
5823;SDS011;2938;52.254;12.988;2023-01-24T03:10:10;35.45;;;20.77;;
5823;SDS011;2938;52.254;12.988;2023-01-24T03:12:36;33.92;;;20.55;;
5823;SDS011;2938;52.254;12.988;2023-01-24T03:15:21;43.38;;;20.88;;
5823;SDS011;2938;52.254;12.988;2023-01-24T03:18:05;39.15;;;19.25;;
5823;SDS011;2938;52.254;12.988;2023-01-24T03:20:49;40.55;;;21.92;;
5823;SDS011;2938;52.254;12.988;2023-01-24T03:23:33;39.65;;;21.73;;
5823;SDS011;2938;52.254;12.988;2023-01-24T03:26:17;39.20;;;20.02;;
5823;SDS011;2938;52.254;12.988;2023-01-24T03:29:01;42.95;;;21.90;;
5823;SDS011;2938;52.254;12.988;2023-01-24T03:31:46;39.05;;;21.35;;
5823;SDS011;2938;52.254;12.988;2023-01-24T03:34:30;38.95;;;22.30;;
5823;SDS011;2938;52.254;12.988;2023-01-24T03:37:01;37.95;;;20.30;;
5823;SDS011;2938;52.254;12.988;2023-01-24T03:39:27;36.35;;;20.55;;
5823;SDS011;2938;52.254;12.988;2023-01-24T03:42:10;51.40;;;23.20;;
5823;SDS011;2938;52.254;12.988;2023-01-24T03:44:36;39.40;;;21.52;;
5823;SDS011;2938;52.254;12.988;2023-01-24T03:47:01;42.88;;;22.55;;
5823;SDS011;2938;52.254;12.988;2023-01-24T03:49:27;40.05;;;21.65;;
5823;SDS011;2938;52.254;12.988;2023-01-24T03:52:11;46.97;;;22.50;;
5823;SDS011;2938;52.254;12.988;2023-01-24T03:54:58;38.00;;;22.10;;
5823;SDS011;2938;52.254;12.988;2023-01-24T03:57:25;42.33;;;20.50;;
5823;SDS011;2938;52.254;12.988;2023-01-24T03:59:51;38.20;;;20.70;;
5823;SDS011;2938;52.254;12.988;2023-01-24T04:02:16;33.70;;;20.42;;
5823;SDS011;2938;52.254;12.988;2023-01-24T04:04:42;34.22;;;20.35;;
5823;SDS011;2938;52.254;12.988;2023-01-24T04:07:26;33.95;;;19.40;;
5823;SDS011;2938;52.254;12.988;2023-01-24T04:09:52;34.63;;;20.85;;
5823;SDS011;2938;52.254;12.988;2023-01-24T04:12:17;38.15;;;19.70;;
5823;SDS011;2938;52.254;12.988;2023-01-24T04:14:42;32.33;;;19.95;;
5823;SDS011;2938;52.254;12.988;2023-01-24T04:17:08;41.95;;;20.42;;
5823;SDS011;2938;52.254;12.988;2023-01-24T04:19:33;29.17;;;17.15;;
5823;SDS011;2938;52.254;12.988;2023-01-24T04:21:58;35.78;;;20.13;;
5823;SDS011;2938;52.254;12.988;2023-01-24T04:24:24;36.03;;;19.50;;
5823;SDS011;2938;52.254;12.988;2023-01-24T04:26:49;38.40;;;19.35;;
5823;SDS011;2938;52.254;12.988;2023-01-24T04:29:15;38.33;;;22.48;;
5823;SDS011;2938;52.254;12.988;2023-01-24T04:31:40;40.90;;;20.98;;
5823;SDS011;2938;52.254;12.988;2023-01-24T04:34:05;39.25;;;21.02;;
5823;SDS011;2938;52.254;12.988;2023-01-24T04:36:30;37.10;;;19.92;;
5823;SDS011;2938;52.254;12.988;2023-01-24T04:38:56;36.58;;;19.30;;
5823;SDS011;2938;52.254;12.988;2023-01-24T04:41:21;35.15;;;18.58;;
5823;SDS011;2938;52.254;12.988;2023-01-24T04:43:46;27.45;;;18.63;;
5823;SDS011;2938;52.254;12.988;2023-01-24T04:46:12;36.55;;;19.95;;
5823;SDS011;2938;52.254;12.988;2023-01-24T04:48:37;35.78;;;18.83;;
5823;SDS011;2938;52.254;12.988;2023-01-24T04:51:02;36.05;;;18.85;;
5823;SDS011;2938;52.254;12.988;2023-01-24T04:53:28;35.88;;;19.60;;
5823;SDS011;2938;52.254;12.988;2023-01-24T04:55:54;33.45;;;19.33;;
5823;SDS011;2938;52.254;12.988;2023-01-24T04:58:26;31.35;;;19.67;;
5823;SDS011;2938;52.254;12.988;2023-01-24T05:00:52;29.83;;;17.33;;
5823;SDS011;2938;52.254;12.988;2023-01-24T05:03:17;33.60;;;20.08;;
5823;SDS011;2938;52.254;12.988;2023-01-24T05:05:43;33.83;;;18.88;;
5823;SDS011;2938;52.254;12.988;2023-01-24T05:08:08;35.25;;;19.80;;
5823;SDS011;2938;52.254;12.988;2023-01-24T05:10:33;34.35;;;19.23;;
5823;SDS011;2938;52.254;12.988;2023-01-24T05:12:59;32.10;;;19.17;;
5823;SDS011;2938;52.254;12.988;2023-01-24T05:15:24;31.73;;;17.65;;
5823;SDS011;2938;52.254;12.988;2023-01-24T05:17:50;40.13;;;18.45;;
5823;SDS011;2938;52.254;12.988;2023-01-24T05:20:16;35.13;;;21.35;;
5823;SDS011;2938;52.254;12.988;2023-01-24T05:22:41;42.15;;;17.40;;
5823;SDS011;2938;52.254;12.988;2023-01-24T05:25:11;38.35;;;21.90;;
5823;SDS011;2938;52.254;12.988;2023-01-24T05:27:36;29.00;;;16.80;;
5823;SDS011;2938;52.254;12.988;2023-01-24T05:30:02;29.65;;;17.42;;
5823;SDS011;2938;52.254;12.988;2023-01-24T05:32:27;34.35;;;18.50;;
5823;SDS011;2938;52.254;12.988;2023-01-24T05:34:52;31.65;;;18.30;;
5823;SDS011;2938;52.254;12.988;2023-01-24T05:37:18;27.27;;;16.30;;
5823;SDS011;2938;52.254;12.988;2023-01-24T05:39:43;29.90;;;16.42;;
5823;SDS011;2938;52.254;12.988;2023-01-24T05:42:08;31.80;;;16.98;;
5823;SDS011;2938;52.254;12.988;2023-01-24T05:44:34;32.67;;;18.45;;
5823;SDS011;2938;52.254;12.988;2023-01-24T05:46:59;41.30;;;19.00;;
5823;SDS011;2938;52.254;12.988;2023-01-24T05:49:24;30.20;;;16.73;;
5823;SDS011;2938;52.254;12.988;2023-01-24T05:51:50;32.55;;;17.80;;
5823;SDS011;2938;52.254;12.988;2023-01-24T05:54:15;29.98;;;19.15;;
5823;SDS011;2938;52.254;12.988;2023-01-24T05:56:40;35.75;;;18.15;;
5823;SDS011;2938;52.254;12.988;2023-01-24T05:59:06;31.50;;;18.25;;
5823;SDS011;2938;52.254;12.988;2023-01-24T06:01:31;27.75;;;16.38;;
5823;SDS011;2938;52.254;12.988;2023-01-24T06:03:56;26.85;;;16.48;;
5823;SDS011;2938;52.254;12.988;2023-01-24T06:06:22;27.70;;;16.83;;
5823;SDS011;2938;52.254;12.988;2023-01-24T06:08:49;26.83;;;18.05;;
5823;SDS011;2938;52.254;12.988;2023-01-24T06:11:15;25.67;;;15.95;;
5823;SDS011;2938;52.254;12.988;2023-01-24T06:13:42;26.73;;;15.27;;
5823;SDS011;2938;52.254;12.988;2023-01-24T06:16:17;25.92;;;14.90;;
5823;SDS011;2938;52.254;12.988;2023-01-24T06:18:44;32.50;;;16.70;;
5823;SDS011;2938;52.254;12.988;2023-01-24T06:23:56;24.27;;;14.20;;
5823;SDS011;2938;52.254;12.988;2023-01-24T06:26:22;23.00;;;14.60;;
5823;SDS011;2938;52.254;12.988;2023-01-24T06:28:47;28.20;;;15.25;;
5823;SDS011;2938;52.254;12.988;2023-01-24T06:31:17;24.80;;;14.85;;
5823;SDS011;2938;52.254;12.988;2023-01-24T06:36:27;21.55;;;13.10;;
5823;SDS011;2938;52.254;12.988;2023-01-24T06:38:56;24.98;;;14.90;;
5823;SDS011;2938;52.254;12.988;2023-01-24T06:41:23;26.90;;;15.35;;
5823;SDS011;2938;52.254;12.988;2023-01-24T06:43:48;22.13;;;14.27;;
5823;SDS011;2938;52.254;12.988;2023-01-24T06:46:14;22.52;;;14.27;;
5823;SDS011;2938;52.254;12.988;2023-01-24T06:48:41;33.00;;;16.83;;
5823;SDS011;2938;52.254;12.988;2023-01-24T06:51:08;24.58;;;15.60;;
5823;SDS011;2938;52.254;12.988;2023-01-24T06:53:35;24.30;;;14.20;;
5823;SDS011;2938;52.254;12.988;2023-01-24T06:56:00;28.58;;;15.30;;
5823;SDS011;2938;52.254;12.988;2023-01-24T06:58:25;25.45;;;15.40;;
5823;SDS011;2938;52.254;12.988;2023-01-24T07:00:51;23.52;;;13.32;;
5823;SDS011;2938;52.254;12.988;2023-01-24T07:03:17;28.02;;;13.50;;
5823;SDS011;2938;52.254;12.988;2023-01-24T07:05:43;24.55;;;14.07;;
5823;SDS011;2938;52.254;12.988;2023-01-24T07:08:08;27.10;;;15.18;;
5823;SDS011;2938;52.254;12.988;2023-01-24T07:10:33;35.60;;;15.32;;
5823;SDS011;2938;52.254;12.988;2023-01-24T07:12:59;23.25;;;15.35;;
5823;SDS011;2938;52.254;12.988;2023-01-24T07:15:24;23.98;;;12.77;;
5823;SDS011;2938;52.254;12.988;2023-01-24T07:17:50;19.88;;;13.07;;
5823;SDS011;2938;52.254;12.988;2023-01-24T07:20:15;23.42;;;14.93;;
5823;SDS011;2938;52.254;12.988;2023-01-24T07:22:42;24.33;;;13.68;;
5823;SDS011;2938;52.254;12.988;2023-01-24T07:25:11;29.00;;;13.93;;
5823;SDS011;2938;52.254;12.988;2023-01-24T07:27:41;22.80;;;12.45;;
5823;SDS011;2938;52.254;12.988;2023-01-24T07:30:07;19.83;;;12.95;;
5823;SDS011;2938;52.254;12.988;2023-01-24T07:32:34;23.25;;;13.20;;
5823;SDS011;2938;52.254;12.988;2023-01-24T07:35:03;24.83;;;13.32;;
5823;SDS011;2938;52.254;12.988;2023-01-24T07:37:30;24.05;;;14.60;;
5823;SDS011;2938;52.254;12.988;2023-01-24T07:39:55;22.80;;;14.18;;
5823;SDS011;2938;52.254;12.988;2023-01-24T07:42:20;28.02;;;14.98;;
5823;SDS011;2938;52.254;12.988;2023-01-24T07:44:46;23.02;;;13.73;;
5823;SDS011;2938;52.254;12.988;2023-01-24T07:47:11;20.88;;;13.18;;
5823;SDS011;2938;52.254;12.988;2023-01-24T07:49:36;21.38;;;13.05;;
5823;SDS011;2938;52.254;12.988;2023-01-24T07:52:02;26.08;;;15.57;;
5823;SDS011;2938;52.254;12.988;2023-01-24T07:54:27;30.60;;;15.73;;
5823;SDS011;2938;52.254;12.988;2023-01-24T07:56:56;33.53;;;16.08;;
5823;SDS011;2938;52.254;12.988;2023-01-24T07:59:21;20.58;;;13.13;;
5823;SDS011;2938;52.254;12.988;2023-01-24T08:01:50;22.20;;;14.35;;
5823;SDS011;2938;52.254;12.988;2023-01-24T08:04:16;24.55;;;15.20;;
5823;SDS011;2938;52.254;12.988;2023-01-24T08:06:41;26.08;;;13.30;;
5823;SDS011;2938;52.254;12.988;2023-01-24T08:09:26;27.38;;;15.15;;
5823;SDS011;2938;52.254;12.988;2023-01-24T08:11:52;26.40;;;15.45;;
5823;SDS011;2938;52.254;12.988;2023-01-24T08:17:24;21.98;;;13.65;;
5823;SDS011;2938;52.254;12.988;2023-01-24T08:19:49;24.15;;;15.70;;
5823;SDS011;2938;52.254;12.988;2023-01-24T08:22:15;23.50;;;15.45;;
5823;SDS011;2938;52.254;12.988;2023-01-24T08:24:40;26.73;;;13.75;;
5823;SDS011;2938;52.254;12.988;2023-01-24T08:27:08;21.83;;;14.25;;
5823;SDS011;2938;52.254;12.988;2023-01-24T08:29:36;25.48;;;15.20;;
5823;SDS011;2938;52.254;12.988;2023-01-24T08:32:01;23.48;;;13.90;;
5823;SDS011;2938;52.254;12.988;2023-01-24T08:34:27;22.63;;;13.77;;
5823;SDS011;2938;52.254;12.988;2023-01-24T08:36:58;24.63;;;15.18;;
5823;SDS011;2938;52.254;12.988;2023-01-24T08:39:24;23.58;;;15.15;;
5823;SDS011;2938;52.254;12.988;2023-01-24T08:41:51;27.65;;;13.95;;
5823;SDS011;2938;52.254;12.988;2023-01-24T08:44:22;24.90;;;12.25;;
5823;SDS011;2938;52.254;12.988;2023-01-24T08:46:49;21.75;;;13.52;;
5823;SDS011;2938;52.254;12.988;2023-01-24T08:49:15;21.67;;;14.35;;
5823;SDS011;2938;52.254;12.988;2023-01-24T08:51:41;32.20;;;13.20;;
5823;SDS011;2938;52.254;12.988;2023-01-24T08:54:06;23.45;;;13.80;;
5823;SDS011;2938;52.254;12.988;2023-01-24T08:56:32;19.42;;;13.30;;
5823;SDS011;2938;52.254;12.988;2023-01-24T08:59:09;24.48;;;13.02;;
5823;SDS011;2938;52.254;12.988;2023-01-24T09:01:35;24.27;;;13.63;;
5823;SDS011;2938;52.254;12.988;2023-01-24T09:04:05;23.95;;;14.77;;
5823;SDS011;2938;52.254;12.988;2023-01-24T09:06:38;24.85;;;14.00;;
5823;SDS011;2938;52.254;12.988;2023-01-24T09:09:07;21.42;;;12.82;;
5823;SDS011;2938;52.254;12.988;2023-01-24T09:11:36;22.60;;;14.90;;
5823;SDS011;2938;52.254;12.988;2023-01-24T09:14:01;23.58;;;14.38;;
5823;SDS011;2938;52.254;12.988;2023-01-24T09:16:42;19.45;;;13.18;;
5823;SDS011;2938;52.254;12.988;2023-01-24T09:19:11;25.40;;;15.05;;
5823;SDS011;2938;52.254;12.988;2023-01-24T09:21:37;22.73;;;14.23;;
5823;SDS011;2938;52.254;12.988;2023-01-24T09:24:12;27.20;;;14.93;;
5823;SDS011;2938;52.254;12.988;2023-01-24T09:26:46;28.05;;;14.00;;
5823;SDS011;2938;52.254;12.988;2023-01-24T09:29:16;26.10;;;15.32;;
5823;SDS011;2938;52.254;12.988;2023-01-24T09:31:49;23.85;;;14.55;;
5823;SDS011;2938;52.254;12.988;2023-01-24T09:34:33;29.48;;;12.20;;
5823;SDS011;2938;52.254;12.988;2023-01-24T09:37:32;27.73;;;14.63;;
5823;SDS011;2938;52.254;12.988;2023-01-24T09:40:02;23.95;;;14.23;;
5823;SDS011;2938;52.254;12.988;2023-01-24T09:42:51;21.50;;;13.13;;
5823;SDS011;2938;52.254;12.988;2023-01-24T09:45:33;26.25;;;13.07;;
5823;SDS011;2938;52.254;12.988;2023-01-24T09:48:32;26.77;;;15.27;;
5823;SDS011;2938;52.254;12.988;2023-01-24T09:51:03;22.48;;;15.02;;
5823;SDS011;2938;52.254;12.988;2023-01-24T09:53:40;30.63;;;14.55;;
5823;SDS011;2938;52.254;12.988;2023-01-24T09:59:20;27.73;;;14.93;;
5823;SDS011;2938;52.254;12.988;2023-01-24T10:01:58;26.90;;;15.13;;
5823;SDS011;2938;52.254;12.988;2023-01-24T10:04:31;22.77;;;14.70;;
5823;SDS011;2938;52.254;12.988;2023-01-24T10:07:12;23.15;;;14.73;;
5823;SDS011;2938;52.254;12.988;2023-01-24T10:13:12;26.88;;;14.55;;
5823;SDS011;2938;52.254;12.988;2023-01-24T10:22:36;26.90;;;14.15;;
5823;SDS011;2938;52.254;12.988;2023-01-24T10:32:51;28.33;;;14.38;;
5823;SDS011;2938;52.254;12.988;2023-01-24T10:39:44;42.72;;;16.45;;
5823;SDS011;2938;52.254;12.988;2023-01-24T10:49:17;42.65;;;17.80;;
5823;SDS011;2938;52.254;12.988;2023-01-24T10:55:01;32.10;;;17.13;;
5823;SDS011;2938;52.254;12.988;2023-01-24T11:03:32;25.48;;;15.63;;
5823;SDS011;2938;52.254;12.988;2023-01-24T11:09:29;39.53;;;17.38;;
5823;SDS011;2938;52.254;12.988;2023-01-24T11:12:00;31.80;;;15.55;;
5823;SDS011;2938;52.254;12.988;2023-01-24T11:18:13;32.50;;;16.70;;
5823;SDS011;2938;52.254;12.988;2023-01-24T11:21:34;29.73;;;15.27;;
5823;SDS011;2938;52.254;12.988;2023-01-24T11:24:25;41.60;;;16.08;;
5823;SDS011;2938;52.254;12.988;2023-01-24T11:38:54;29.60;;;15.48;;
5823;SDS011;2938;52.254;12.988;2023-01-24T11:52:26;30.25;;;14.98;;
5823;SDS011;2938;52.254;12.988;2023-01-24T11:55:01;29.52;;;14.13;;
5823;SDS011;2938;52.254;12.988;2023-01-24T12:01:00;29.08;;;14.55;;
5823;SDS011;2938;52.254;12.988;2023-01-24T12:09:25;20.95;;;13.05;;
5823;SDS011;2938;52.254;12.988;2023-01-24T12:23:19;24.63;;;14.50;;
5823;SDS011;2938;52.254;12.988;2023-01-24T12:25:49;30.92;;;14.88;;
5823;SDS011;2938;52.254;12.988;2023-01-24T12:28:25;28.67;;;16.02;;
5823;SDS011;2938;52.254;12.988;2023-01-24T12:30:54;25.65;;;15.95;;
5823;SDS011;2938;52.254;12.988;2023-01-24T12:33:24;24.27;;;14.40;;
5823;SDS011;2938;52.254;12.988;2023-01-24T12:35:57;33.13;;;15.63;;
5823;SDS011;2938;52.254;12.988;2023-01-24T12:41:23;24.73;;;14.07;;
5823;SDS011;2938;52.254;12.988;2023-01-24T12:55:41;27.25;;;15.05;;
5823;SDS011;2938;52.254;12.988;2023-01-24T12:58:16;29.52;;;16.95;;
5823;SDS011;2938;52.254;12.988;2023-01-24T13:00:56;35.13;;;14.80;;
5823;SDS011;2938;52.254;12.988;2023-01-24T13:03:41;23.25;;;14.75;;
5823;SDS011;2938;52.254;12.988;2023-01-24T13:06:22;29.85;;;14.25;;
5823;SDS011;2938;52.254;12.988;2023-01-24T13:09:08;35.92;;;14.88;;
5823;SDS011;2938;52.254;12.988;2023-01-24T13:11:41;28.85;;;16.35;;
5823;SDS011;2938;52.254;12.988;2023-01-24T13:14:19;28.95;;;14.05;;
5823;SDS011;2938;52.254;12.988;2023-01-24T13:22:57;29.63;;;14.73;;
5823;SDS011;2938;52.254;12.988;2023-01-24T13:25:40;35.13;;;15.85;;
5823;SDS011;2938;52.254;12.988;2023-01-24T13:31:03;35.47;;;15.77;;
5823;SDS011;2938;52.254;12.988;2023-01-24T13:33:38;26.52;;;15.35;;
5823;SDS011;2938;52.254;12.988;2023-01-24T13:36:06;29.70;;;15.48;;
5823;SDS011;2938;52.254;12.988;2023-01-24T13:38:38;30.52;;;16.30;;
5823;SDS011;2938;52.254;12.988;2023-01-24T13:41:06;32.53;;;16.95;;
5823;SDS011;2938;52.254;12.988;2023-01-24T13:49:13;34.67;;;16.20;;
5823;SDS011;2938;52.254;12.988;2023-01-24T13:54:59;40.35;;;17.77;;
5823;SDS011;2938;52.254;12.988;2023-01-24T13:57:26;34.63;;;16.88;;
5823;SDS011;2938;52.254;12.988;2023-01-24T14:08:00;39.47;;;17.50;;
5823;SDS011;2938;52.254;12.988;2023-01-24T14:10:34;44.28;;;18.92;;
5823;SDS011;2938;52.254;12.988;2023-01-24T14:13:00;33.58;;;18.27;;
5823;SDS011;2938;52.254;12.988;2023-01-24T14:18:38;34.85;;;17.60;;
5823;SDS011;2938;52.254;12.988;2023-01-24T14:21:12;27.80;;;14.75;;
5823;SDS011;2938;52.254;12.988;2023-01-24T14:23:46;34.97;;;17.30;;
5823;SDS011;2938;52.254;12.988;2023-01-24T14:26:15;38.47;;;18.50;;
5823;SDS011;2938;52.254;12.988;2023-01-24T14:28:43;41.65;;;20.33;;
5823;SDS011;2938;52.254;12.988;2023-01-24T14:31:24;45.05;;;18.65;;
5823;SDS011;2938;52.254;12.988;2023-01-24T14:33:52;44.50;;;19.98;;
5823;SDS011;2938;52.254;12.988;2023-01-24T14:36:27;37.15;;;17.63;;
5823;SDS011;2938;52.254;12.988;2023-01-24T14:41:47;43.65;;;18.17;;
5823;SDS011;2938;52.254;12.988;2023-01-24T14:44:15;47.03;;;20.88;;
5823;SDS011;2938;52.254;12.988;2023-01-24T14:46:41;50.90;;;20.90;;
5823;SDS011;2938;52.254;12.988;2023-01-24T14:52:17;43.10;;;20.80;;
5823;SDS011;2938;52.254;12.988;2023-01-24T14:54:59;55.95;;;20.85;;
5823;SDS011;2938;52.254;12.988;2023-01-24T14:57:43;53.25;;;20.60;;
5823;SDS011;2938;52.254;12.988;2023-01-24T15:07:52;50.70;;;21.42;;
5823;SDS011;2938;52.254;12.988;2023-01-24T15:10:22;52.55;;;23.45;;
5823;SDS011;2938;52.254;12.988;2023-01-24T15:12:54;61.85;;;22.67;;
5823;SDS011;2938;52.254;12.988;2023-01-24T15:15:21;41.25;;;19.33;;
5823;SDS011;2938;52.254;12.988;2023-01-24T15:17:47;50.50;;;22.65;;
5823;SDS011;2938;52.254;12.988;2023-01-24T15:20:15;59.22;;;23.10;;
5823;SDS011;2938;52.254;12.988;2023-01-24T15:22:49;59.88;;;24.63;;
5823;SDS011;2938;52.254;12.988;2023-01-24T15:25:21;63.58;;;25.35;;
5823;SDS011;2938;52.254;12.988;2023-01-24T15:27:50;61.92;;;25.20;;
5823;SDS011;2938;52.254;12.988;2023-01-24T15:30:22;59.35;;;23.65;;
5823;SDS011;2938;52.254;12.988;2023-01-24T15:35:21;70.82;;;25.63;;
5823;SDS011;2938;52.254;12.988;2023-01-24T15:40:30;69.55;;;26.77;;
5823;SDS011;2938;52.254;12.988;2023-01-24T15:42:57;56.20;;;25.67;;
5823;SDS011;2938;52.254;12.988;2023-01-24T15:45:44;72.32;;;25.77;;
5823;SDS011;2938;52.254;12.988;2023-01-24T15:48:15;70.80;;;27.48;;
5823;SDS011;2938;52.254;12.988;2023-01-24T15:50:49;79.97;;;30.63;;
5823;SDS011;2938;52.254;12.988;2023-01-24T15:53:34;66.97;;;26.52;;
5823;SDS011;2938;52.254;12.988;2023-01-24T15:56:09;60.88;;;25.92;;
5823;SDS011;2938;52.254;12.988;2023-01-24T15:58:38;65.25;;;25.95;;
5823;SDS011;2938;52.254;12.988;2023-01-24T16:01:04;83.80;;;27.95;;
5823;SDS011;2938;52.254;12.988;2023-01-24T16:03:29;61.17;;;27.63;;
5823;SDS011;2938;52.254;12.988;2023-01-24T16:05:55;89.65;;;29.45;;
5823;SDS011;2938;52.254;12.988;2023-01-24T16:08:21;71.75;;;28.00;;
5823;SDS011;2938;52.254;12.988;2023-01-24T16:10:46;62.08;;;28.10;;
5823;SDS011;2938;52.254;12.988;2023-01-24T16:13:25;68.47;;;28.95;;
5823;SDS011;2938;52.254;12.988;2023-01-24T16:16:03;64.03;;;31.25;;
5823;SDS011;2938;52.254;12.988;2023-01-24T16:18:31;77.57;;;29.45;;
5823;SDS011;2938;52.254;12.988;2023-01-24T16:20:56;88.68;;;30.10;;
5823;SDS011;2938;52.254;12.988;2023-01-24T16:23:21;82.78;;;32.55;;
5823;SDS011;2938;52.254;12.988;2023-01-24T16:25:50;86.45;;;34.85;;
5823;SDS011;2938;52.254;12.988;2023-01-24T16:28:19;87.20;;;30.00;;
5823;SDS011;2938;52.254;12.988;2023-01-24T16:30:46;78.32;;;31.35;;
5823;SDS011;2938;52.254;12.988;2023-01-24T16:33:15;93.47;;;33.00;;
5823;SDS011;2938;52.254;12.988;2023-01-24T16:35:41;90.25;;;33.83;;
5823;SDS011;2938;52.254;12.988;2023-01-24T16:38:07;84.85;;;31.38;;
5823;SDS011;2938;52.254;12.988;2023-01-24T16:40:35;86.30;;;31.92;;
5823;SDS011;2938;52.254;12.988;2023-01-24T16:43:02;93.30;;;32.50;;
5823;SDS011;2938;52.254;12.988;2023-01-24T16:45:28;81.90;;;34.13;;
5823;SDS011;2938;52.254;12.988;2023-01-24T16:47:53;88.97;;;33.25;;
5823;SDS011;2938;52.254;12.988;2023-01-24T16:50:19;169.32;;;64.05;;
5823;SDS011;2938;52.254;12.988;2023-01-24T16:52:44;165.07;;;72.90;;
5823;SDS011;2938;52.254;12.988;2023-01-24T16:55:10;121.97;;;49.47;;
5823;SDS011;2938;52.254;12.988;2023-01-24T16:57:35;111.93;;;39.88;;
5823;SDS011;2938;52.254;12.988;2023-01-24T17:00:01;84.88;;;33.30;;
5823;SDS011;2938;52.254;12.988;2023-01-24T17:05:53;104.60;;;33.08;;
5823;SDS011;2938;52.254;12.988;2023-01-24T17:08:25;96.57;;;32.70;;
5823;SDS011;2938;52.254;12.988;2023-01-24T17:13:48;94.05;;;35.25;;
5823;SDS011;2938;52.254;12.988;2023-01-24T17:16:17;99.05;;;35.45;;
5823;SDS011;2938;52.254;12.988;2023-01-24T17:18:42;85.63;;;34.70;;
5823;SDS011;2938;52.254;12.988;2023-01-24T17:21:12;100.47;;;34.58;;
5823;SDS011;2938;52.254;12.988;2023-01-24T17:23:38;91.78;;;34.13;;
5823;SDS011;2938;52.254;12.988;2023-01-24T17:26:05;106.03;;;35.92;;
5823;SDS011;2938;52.254;12.988;2023-01-24T17:28:32;91.50;;;34.65;;
5823;SDS011;2938;52.254;12.988;2023-01-24T17:31:14;92.43;;;28.58;;
5823;SDS011;2938;52.254;12.988;2023-01-24T17:33:49;89.32;;;34.50;;
5823;SDS011;2938;52.254;12.988;2023-01-24T17:36:15;93.88;;;35.55;;
5823;SDS011;2938;52.254;12.988;2023-01-24T17:38:51;95.68;;;37.58;;
5823;SDS011;2938;52.254;12.988;2023-01-24T17:41:44;96.40;;;34.08;;